createdAt,value
2022-07-29T00:02:27.502Z,3.63
2022-07-29T00:04:54.346Z,3.80
2022-07-29T00:07:21.146Z,4.13
2022-07-29T00:09:50.822Z,3.93
2022-07-29T00:12:25.108Z,3.90
2022-07-29T00:14:54.396Z,4.53
2022-07-29T00:17:21.132Z,4.17
2022-07-29T00:19:47.823Z,4.90
2022-07-29T00:22:14.715Z,4.90
2022-07-29T00:24:41.468Z,4.20
2022-07-29T00:27:08.168Z,3.77
2022-07-29T00:29:35.313Z,4.03
2022-07-29T00:32:03.227Z,4.10
2022-07-29T00:34:48.879Z,3.80
2022-07-29T00:37:15.563Z,4.23
2022-07-29T00:39:42.232Z,3.97
2022-07-29T00:42:09.167Z,4.33
2022-07-29T00:44:42.673Z,3.80
2022-07-29T00:47:11.536Z,4.47
2022-07-29T00:49:40.427Z,3.93
2022-07-29T00:52:08.622Z,4.50
2022-07-29T00:54:37.412Z,4.30
2022-07-29T00:57:12.054Z,4.00
2022-07-29T00:59:38.802Z,4.30
2022-07-29T01:02:05.658Z,3.97
2022-07-29T01:04:32.901Z,4.07
2022-07-29T01:07:02.414Z,4.20
2022-07-29T01:09:46.222Z,4.40
2022-07-29T01:12:17.571Z,4.40
2022-07-29T01:14:44.815Z,4.30
2022-07-29T01:17:33.221Z,4.00
2022-07-29T01:20:19.757Z,4.10
2022-07-29T01:22:55.299Z,4.23
2022-07-29T01:25:36.827Z,4.20
2022-07-29T01:28:35.861Z,4.30
2022-07-29T01:31:05.202Z,4.20
2022-07-29T01:33:51.014Z,4.30
2022-07-29T01:36:28.990Z,4.23
2022-07-29T01:39:11.060Z,5.03
2022-07-29T01:41:44.121Z,4.27
2022-07-29T01:44:18.788Z,4.40
2022-07-29T01:46:53.133Z,4.27
2022-07-29T01:49:25.183Z,5.47
2022-07-29T01:52:03.240Z,4.37
2022-07-29T01:54:43.912Z,4.80
2022-07-29T01:57:18.326Z,5.03
2022-07-29T01:59:47.403Z,4.50
2022-07-29T02:02:16.902Z,4.43
2022-07-29T02:04:49.271Z,4.23
2022-07-29T02:07:20.154Z,4.70
2022-07-29T02:09:50.164Z,4.40
2022-07-29T02:12:20.358Z,4.20
2022-07-29T02:14:51.306Z,4.90
2022-07-29T02:17:24.718Z,4.53
2022-07-29T02:19:53.762Z,4.70
2022-07-29T02:22:21.321Z,4.30
2022-07-29T02:24:51.378Z,4.10
2022-07-29T02:27:20.748Z,4.57
2022-07-29T02:29:48.606Z,5.30
2022-07-29T02:32:17.278Z,4.17
2022-07-29T02:34:45.690Z,4.37
2022-07-29T02:37:13.770Z,4.70
2022-07-29T02:39:43.124Z,4.07
2022-07-29T02:42:14.945Z,4.50
2022-07-29T02:44:42.223Z,4.17
2022-07-29T02:47:12.526Z,4.37
2022-07-29T02:50:12.267Z,4.57
2022-07-29T02:52:42.223Z,4.90
2022-07-29T02:55:17.490Z,4.47
2022-07-29T02:57:54.996Z,4.90
2022-07-29T03:00:24.759Z,5.00
2022-07-29T03:02:53.766Z,4.80
2022-07-29T03:05:21.871Z,4.60
2022-07-29T03:07:58.482Z,4.40
2022-07-29T03:10:27.804Z,5.10
2022-07-29T03:12:56.628Z,4.10
2022-07-29T03:15:24.774Z,4.53
2022-07-29T03:17:53.315Z,4.40
2022-07-29T03:20:20.399Z,4.40
2022-07-29T03:22:50.033Z,4.63
2022-07-29T03:25:21.058Z,4.40
2022-07-29T03:27:49.180Z,5.03
2022-07-29T03:30:18.434Z,4.43
2022-07-29T03:32:49.889Z,4.70
2022-07-29T03:35:20.397Z,4.60
2022-07-29T03:37:47.739Z,4.60
2022-07-29T03:40:28.557Z,4.50
2022-07-29T03:42:56.391Z,4.40
2022-07-29T03:45:25.183Z,4.50
2022-07-29T03:48:00.673Z,5.30
2022-07-29T03:50:29.649Z,4.80
2022-07-29T03:52:56.486Z,4.53
2022-07-29T03:55:23.347Z,4.60
2022-07-29T03:57:50.811Z,4.30
2022-07-29T04:00:17.917Z,4.27
2022-07-29T04:02:49.170Z,4.53
2022-07-29T04:05:16.838Z,4.97
2022-07-29T04:07:47.932Z,4.50
2022-07-29T04:10:16.680Z,5.00
2022-07-29T04:12:43.904Z,5.07
2022-07-29T04:15:11.462Z,4.97
2022-07-29T04:17:38.171Z,4.80
2022-07-29T04:20:05.766Z,4.70
2022-07-29T04:22:32.455Z,5.00
2022-07-29T04:25:03.679Z,5.43
2022-07-29T04:27:31.030Z,4.87
2022-07-29T04:29:57.808Z,5.80
2022-07-29T04:32:25.482Z,4.87
2022-07-29T04:34:52.413Z,4.57
2022-07-29T04:37:19.484Z,4.97
2022-07-29T04:39:46.186Z,5.00
2022-07-29T04:42:13.304Z,5.43
2022-07-29T04:44:43.235Z,5.30
2022-07-29T04:47:10.279Z,4.70
2022-07-29T04:49:39.580Z,4.83
2022-07-29T04:52:07.047Z,5.20
2022-07-29T04:54:34.351Z,5.20
2022-07-29T04:57:01.073Z,4.50
2022-07-29T04:59:28.053Z,4.40
2022-07-29T05:01:54.899Z,4.63
2022-07-29T05:04:21.670Z,4.63
2022-07-29T05:06:48.645Z,4.80
2022-07-29T05:09:15.401Z,4.97
2022-07-29T05:11:42.100Z,5.07
2022-07-29T05:14:08.787Z,4.60
2022-07-29T05:16:35.487Z,4.70
2022-07-29T05:19:02.432Z,4.80
2022-07-29T05:21:29.117Z,4.70
2022-07-29T05:23:55.882Z,4.73
2022-07-29T05:26:22.631Z,4.77
2022-07-29T05:28:49.304Z,4.53
2022-07-29T05:31:16.108Z,5.30
2022-07-29T05:33:43.297Z,4.57
2022-07-29T05:36:09.969Z,4.93
2022-07-29T05:38:37.458Z,4.63
2022-07-29T05:41:05.954Z,4.73
2022-07-29T05:43:33.287Z,4.97
2022-07-29T05:46:00.542Z,4.80
2022-07-29T05:48:27.415Z,4.73
2022-07-29T05:50:54.636Z,4.33
2022-07-29T05:53:21.420Z,4.97
2022-07-29T05:55:48.953Z,4.50
2022-07-29T05:58:15.951Z,4.53
2022-07-29T06:00:42.834Z,4.57
2022-07-29T06:03:09.559Z,4.53
2022-07-29T06:05:36.358Z,4.33
2022-07-29T06:08:03.236Z,4.57
2022-07-29T06:10:29.985Z,5.00
2022-07-29T06:12:56.768Z,4.40
2022-07-29T06:15:23.428Z,4.73
2022-07-29T06:18:00.020Z,4.77
2022-07-29T06:20:32.392Z,4.23
2022-07-29T06:23:00.227Z,4.40
2022-07-29T06:25:30.029Z,4.30
2022-07-29T06:27:56.962Z,4.30
2022-07-29T06:30:23.808Z,4.73
2022-07-29T06:32:50.729Z,5.00
2022-07-29T06:35:38.808Z,4.63
2022-07-29T06:38:08.422Z,4.40
2022-07-29T06:41:08.535Z,4.00
2022-07-29T06:43:51.754Z,4.13
2022-07-29T06:46:22.034Z,3.60
2022-07-29T06:48:49.132Z,3.13
2022-07-29T06:51:17.259Z,3.30
2022-07-29T06:54:01.728Z,3.40
2022-07-29T06:56:39.284Z,3.10
2022-07-29T06:59:10.571Z,3.33
2022-07-29T07:01:38.994Z,3.03
2022-07-29T07:04:06.000Z,3.07
2022-07-29T07:06:32.752Z,2.60
2022-07-29T07:08:59.439Z,2.87
2022-07-29T07:11:26.090Z,3.00
2022-07-29T07:13:52.767Z,2.67
2022-07-29T07:16:19.560Z,2.57
2022-07-29T07:18:46.386Z,2.70
2022-07-29T07:21:19.212Z,2.90
2022-07-29T07:23:46.862Z,3.00
2022-07-29T07:26:13.569Z,3.03
2022-07-29T07:28:40.302Z,3.23
2022-07-29T07:31:07.123Z,2.60
2022-07-29T07:33:33.824Z,3.20
2022-07-29T07:36:00.518Z,2.77
2022-07-29T07:38:27.214Z,3.43
2022-07-29T07:40:53.878Z,3.50
2022-07-29T07:43:20.586Z,3.07
2022-07-29T07:45:47.286Z,3.27
2022-07-29T07:48:14.152Z,3.27
2022-07-29T07:50:40.909Z,3.67
2022-07-29T07:53:07.833Z,3.37
2022-07-29T07:56:00.000Z,3.63
2022-07-29T07:58:21.281Z,3.20
2022-07-29T08:00:48.381Z,3.50
2022-07-29T08:03:16.839Z,3.23
2022-07-29T08:05:44.547Z,3.47
2022-07-29T08:08:11.260Z,3.40
2022-07-29T08:10:53.169Z,3.50
2022-07-29T08:13:22.162Z,3.43
2022-07-29T08:15:58.236Z,3.87
2022-07-29T08:18:26.129Z,3.30
2022-07-29T08:20:52.954Z,3.50
2022-07-29T08:23:23.653Z,3.83
2022-07-29T08:25:52.206Z,3.90
2022-07-29T08:28:21.556Z,3.83
2022-07-29T08:30:53.098Z,3.70
2022-07-29T08:33:19.835Z,3.57
2022-07-29T08:35:46.645Z,3.30
2022-07-29T08:38:13.327Z,3.27
2022-07-29T08:40:40.651Z,3.50
2022-07-29T08:43:09.242Z,3.53
2022-07-29T08:45:50.161Z,3.30
2022-07-29T08:48:19.300Z,3.13
2022-07-29T08:50:46.983Z,3.20
2022-07-29T08:53:18.693Z,3.70
2022-07-29T08:55:50.525Z,3.40
2022-07-29T08:58:18.078Z,4.30
2022-07-29T09:00:54.777Z,3.20
2022-07-29T09:03:26.462Z,3.60
2022-07-29T09:05:54.025Z,3.33
2022-07-29T09:08:21.140Z,3.30
2022-07-29T09:10:48.207Z,3.53
2022-07-29T09:13:14.892Z,3.70
2022-07-29T09:15:41.666Z,3.60
2022-07-29T09:18:08.317Z,3.90
2022-07-29T09:21:11.491Z,3.30
2022-07-29T09:23:38.200Z,3.73
2022-07-29T09:26:06.789Z,3.97
2022-07-29T09:28:33.658Z,3.20
2022-07-29T09:31:00.525Z,3.87
2022-07-29T09:33:40.086Z,3.77
2022-07-29T09:36:09.845Z,3.60
2022-07-29T09:38:38.253Z,3.20
2022-07-29T09:41:06.856Z,3.17
2022-07-29T09:43:34.577Z,3.50
2022-07-29T09:46:14.692Z,3.53
2022-07-29T09:48:41.870Z,3.70
2022-07-29T09:51:27.009Z,4.33
2022-07-29T09:54:27.502Z,3.70
2022-07-29T09:56:56.069Z,3.20
2022-07-29T09:59:27.241Z,3.50
2022-07-29T10:01:55.017Z,3.00
2022-07-29T10:04:22.069Z,3.40
2022-07-29T10:07:05.263Z,3.80
2022-07-29T10:09:32.776Z,3.23
2022-07-29T10:12:11.821Z,3.27
2022-07-29T10:14:39.580Z,3.27
2022-07-29T10:17:07.757Z,3.10
2022-07-29T10:19:35.778Z,3.50
2022-07-29T10:22:07.475Z,2.90
2022-07-29T10:24:34.611Z,3.70
2022-07-29T10:27:03.054Z,3.17
2022-07-29T10:29:32.228Z,3.40
2022-07-29T10:32:21.218Z,2.90
2022-07-29T10:35:25.353Z,2.80
2022-07-29T10:38:22.706Z,3.03
2022-07-29T10:44:26.505Z,3.33
2022-07-29T10:46:54.567Z,3.20
2022-07-29T10:49:24.740Z,3.00
2022-07-29T10:51:51.862Z,2.90
2022-07-29T10:54:48.838Z,2.83
2022-07-29T10:57:54.080Z,3.00
2022-07-29T11:00:16.762Z,2.97
2022-07-29T11:02:45.456Z,3.10
2022-07-29T11:05:12.921Z,2.77
2022-07-29T11:08:00.463Z,3.33
2022-07-29T11:10:31.135Z,2.70
2022-07-29T11:12:59.145Z,3.20
2022-07-29T11:15:28.540Z,3.10
2022-07-29T11:17:59.474Z,2.80
2022-07-29T11:20:44.271Z,2.70
2022-07-29T11:26:18.544Z,3.10
2022-07-29T11:28:53.153Z,3.00
2022-07-29T11:31:35.729Z,2.87
2022-07-29T11:34:33.246Z,3.30
2022-07-29T11:37:10.538Z,3.23
2022-07-29T11:39:39.857Z,2.80
2022-07-29T11:42:28.347Z,3.20
2022-07-29T11:45:42.759Z,2.90
2022-07-29T11:48:27.719Z,2.97
2022-07-29T11:50:48.900Z,3.90
2022-07-29T11:53:17.084Z,3.20
2022-07-29T11:55:50.832Z,3.50
2022-07-29T12:01:15.084Z,4.10
2022-07-29T12:03:43.690Z,3.40
2022-07-29T12:06:17.425Z,3.67
2022-07-29T12:08:45.385Z,3.53
2022-07-29T12:11:20.735Z,3.40
2022-07-29T12:13:49.844Z,3.80
2022-07-29T12:16:28.062Z,3.30
2022-07-29T12:19:00.608Z,3.47
2022-07-29T12:21:29.407Z,3.33
2022-07-29T12:24:01.736Z,3.93
2022-07-29T12:26:32.359Z,3.90
2022-07-29T12:29:02.415Z,3.27
2022-07-29T12:31:41.925Z,3.27
2022-07-29T12:34:09.608Z,4.13
2022-07-29T12:36:37.196Z,3.20
2022-07-29T12:39:05.220Z,3.20
2022-07-29T12:41:31.988Z,3.40
2022-07-29T12:43:58.700Z,3.40
2022-07-29T12:46:25.425Z,3.63
2022-07-29T12:48:57.403Z,3.30
2022-07-29T12:51:32.390Z,3.20
2022-07-29T12:54:06.887Z,3.17
2022-07-29T12:56:42.608Z,3.10
2022-07-29T12:59:22.977Z,3.43
2022-07-29T13:01:52.210Z,3.40
2022-07-29T13:04:30.470Z,3.30
2022-07-29T13:07:08.373Z,3.33
2022-07-29T13:09:46.540Z,3.30
2022-07-29T13:12:14.598Z,3.47
2022-07-29T13:14:44.384Z,3.80
2022-07-29T13:17:13.311Z,3.13
2022-07-29T13:19:53.958Z,3.60
2022-07-29T13:22:25.147Z,3.40
2022-07-29T13:25:00.470Z,3.43
2022-07-29T13:27:33.030Z,3.00
2022-07-29T13:30:01.398Z,3.10
2022-07-29T13:32:30.483Z,3.43
2022-07-29T13:34:58.624Z,3.10
2022-07-29T13:37:26.854Z,3.27
2022-07-29T13:39:55.078Z,3.70
2022-07-29T13:42:22.006Z,3.23
2022-07-29T13:44:51.688Z,3.50
2022-07-29T13:47:19.718Z,3.40
2022-07-29T13:49:46.667Z,3.20
2022-07-29T13:52:13.561Z,3.60
2022-07-29T13:54:42.569Z,3.47
2022-07-29T13:57:11.742Z,3.60
2022-07-29T13:59:39.310Z,3.70
2022-07-29T14:02:06.522Z,3.80
2022-07-29T14:04:34.463Z,3.73
2022-07-29T14:07:03.711Z,3.43
2022-07-29T14:09:37.433Z,3.83
2022-07-29T14:12:09.089Z,3.53
2022-07-29T14:14:37.406Z,3.73
2022-07-29T14:17:04.929Z,4.00
2022-07-29T14:19:33.009Z,4.30
2022-07-29T14:22:00.184Z,3.73
2022-07-29T14:24:27.389Z,3.60
2022-07-29T14:26:54.161Z,3.60
2022-07-29T14:29:20.999Z,3.90
2022-07-29T14:31:47.745Z,3.70
2022-07-29T14:34:16.345Z,4.07
2022-07-29T14:36:43.126Z,4.00
2022-07-29T14:39:09.792Z,3.83
2022-07-29T14:41:36.477Z,3.80
2022-07-29T14:44:03.439Z,3.90
2022-07-29T14:46:30.174Z,3.83
2022-07-29T14:48:56.927Z,4.20
2022-07-29T14:51:23.773Z,3.80
2022-07-29T14:53:59.098Z,3.80
2022-07-29T14:56:46.682Z,4.23
2022-07-29T14:59:12.442Z,3.50
2022-07-29T15:01:39.227Z,4.20
2022-07-29T15:04:05.967Z,4.43
2022-07-29T15:06:32.630Z,3.67
2022-07-29T15:08:59.331Z,3.80
2022-07-29T15:11:26.431Z,3.83
2022-07-29T15:13:53.100Z,4.10
2022-07-29T15:16:19.790Z,4.53
2022-07-29T15:18:46.477Z,3.73
2022-07-29T15:21:13.129Z,3.90
2022-07-29T15:23:39.962Z,3.70
2022-07-29T15:26:06.762Z,3.40
2022-07-29T15:28:33.472Z,4.27
2022-07-29T15:31:00.173Z,3.93
2022-07-29T15:33:27.011Z,3.53
2022-07-29T15:35:53.703Z,3.73
2022-07-29T15:38:20.445Z,3.30
2022-07-29T15:40:55.431Z,4.83
2022-07-29T15:43:22.211Z,3.57
2022-07-29T15:46:07.576Z,4.53
2022-07-29T15:48:37.738Z,4.23
2022-07-29T15:51:04.845Z,4.10
2022-07-29T15:53:31.580Z,4.40
2022-07-29T15:55:59.794Z,4.20
2022-07-29T15:58:26.539Z,4.20
2022-07-29T16:00:53.238Z,4.47
2022-07-29T16:03:20.926Z,4.90
2022-07-29T16:05:47.587Z,4.30
2022-07-29T16:08:14.334Z,4.30
2022-07-29T16:10:41.159Z,4.93
2022-07-29T16:13:07.843Z,4.20
2022-07-29T16:15:34.575Z,4.90
2022-07-29T16:18:01.375Z,5.23
2022-07-29T16:20:28.075Z,4.90
2022-07-29T16:22:55.404Z,5.00
2022-07-29T16:25:29.577Z,5.20
2022-07-29T16:28:06.115Z,4.80
2022-07-29T16:30:32.810Z,4.50
2022-07-29T16:32:59.483Z,4.53
2022-07-29T16:35:26.344Z,4.33
2022-07-29T16:38:06.725Z,4.30
2022-07-29T16:40:33.423Z,4.10
2022-07-29T16:43:00.343Z,4.30
2022-07-29T16:45:31.470Z,4.80
2022-07-29T16:48:10.835Z,4.80
2022-07-29T16:50:38.903Z,4.47
2022-07-29T16:53:05.601Z,4.57
2022-07-29T16:55:32.253Z,4.60
2022-07-29T16:57:58.930Z,4.57
2022-07-29T17:00:25.805Z,4.20
2022-07-29T17:02:52.508Z,4.47
2022-07-29T17:05:19.185Z,5.07
2022-07-29T17:07:45.883Z,4.80
2022-07-29T17:10:12.571Z,4.90
2022-07-29T17:12:40.807Z,4.73
2022-07-29T17:15:09.929Z,5.40
2022-07-29T17:17:39.555Z,5.23
2022-07-29T17:20:22.512Z,6.03
2022-07-29T17:22:49.161Z,5.40
2022-07-29T17:25:20.390Z,5.60
2022-07-29T17:27:49.426Z,5.27
2022-07-29T17:30:16.264Z,5.43
2022-07-29T17:32:42.929Z,5.23
2022-07-29T17:35:28.524Z,5.27
2022-07-29T17:37:55.596Z,5.50
2022-07-29T17:40:22.446Z,5.77
2022-07-29T17:42:49.259Z,5.60
2022-07-29T17:45:16.084Z,6.90
2022-07-29T17:47:42.783Z,7.50
2022-07-29T17:50:09.865Z,7.80
2022-07-29T17:52:36.605Z,9.20
2022-07-29T17:55:03.366Z,7.10
2022-07-29T17:57:30.127Z,8.50
2022-07-29T17:59:56.835Z,7.73
2022-07-29T18:02:23.582Z,7.87
2022-07-29T18:04:53.314Z,7.77
2022-07-29T18:07:19.981Z,7.40
2022-07-29T18:09:46.689Z,7.93
2022-07-29T18:12:13.349Z,6.83
2022-07-29T18:14:40.054Z,7.30
2022-07-29T18:17:06.702Z,7.80
2022-07-29T18:19:33.355Z,7.70
2022-07-29T18:22:04.759Z,6.73
2022-07-29T18:24:32.414Z,6.83
2022-07-29T18:26:59.387Z,6.67
2022-07-29T18:29:28.811Z,7.80
2022-07-29T18:31:55.708Z,6.50
2022-07-29T18:34:22.352Z,6.80
2022-07-29T18:36:49.002Z,7.03
2022-07-29T18:39:21.007Z,6.50
2022-07-29T18:41:51.832Z,7.27
2022-07-29T18:44:22.633Z,7.20
2022-07-29T18:46:50.439Z,6.87
2022-07-29T18:49:17.236Z,6.93
2022-07-29T18:51:44.046Z,7.00
2022-07-29T18:54:10.757Z,7.37
2022-07-29T18:56:37.605Z,7.60
2022-07-29T18:59:05.108Z,7.10
2022-07-29T19:01:32.853Z,7.53
2022-07-29T19:04:00.332Z,6.23
2022-07-29T19:06:27.115Z,7.20
2022-07-29T19:08:53.865Z,7.20
2022-07-29T19:11:20.538Z,7.47
2022-07-29T19:13:47.217Z,6.70
2022-07-29T19:16:14.471Z,6.97
2022-07-29T19:18:41.676Z,6.50
2022-07-29T19:21:08.485Z,6.93
2022-07-29T19:24:05.214Z,7.37
2022-07-29T19:26:22.034Z,6.40
2022-07-29T19:28:49.225Z,7.60
2022-07-29T19:31:16.195Z,7.53
2022-07-29T19:33:43.214Z,7.70
2022-07-29T19:36:09.979Z,7.90
2022-07-29T19:38:39.364Z,7.20
2022-07-29T19:41:06.487Z,6.80
2022-07-29T19:43:49.672Z,7.53
2022-07-29T19:46:19.017Z,7.30
2022-07-29T19:48:45.839Z,7.83
2022-07-29T19:51:12.570Z,7.57
2022-07-29T19:53:39.281Z,7.40
2022-07-29T19:56:06.026Z,7.40
2022-07-29T19:58:35.743Z,7.17
2022-07-29T20:01:03.176Z,7.30
2022-07-29T20:03:40.426Z,7.33
2022-07-29T20:06:07.836Z,7.37
2022-07-29T20:08:34.796Z,7.60
2022-07-29T20:11:01.760Z,7.67
2022-07-29T20:13:31.170Z,7.40
2022-07-29T20:15:58.111Z,8.20
2022-07-29T20:18:24.935Z,8.10
2022-07-29T20:20:51.772Z,8.27
2022-07-29T20:23:19.302Z,7.70
2022-07-29T20:25:46.078Z,7.40
2022-07-29T20:28:12.891Z,7.37
2022-07-29T20:30:39.866Z,7.80
2022-07-29T20:33:06.892Z,8.03
2022-07-29T20:35:33.941Z,7.67
2022-07-29T20:38:01.008Z,7.90
2022-07-29T20:40:29.003Z,8.17
2022-07-29T20:42:56.399Z,8.50
2022-07-29T20:45:23.736Z,7.83
2022-07-29T20:47:51.786Z,8.70
2022-07-29T20:50:20.463Z,9.50
2022-07-29T20:52:51.022Z,8.70
2022-07-29T20:55:17.703Z,9.20
2022-07-29T20:57:44.496Z,10.10
2022-07-29T21:00:11.847Z,13.37
2022-07-29T21:02:38.625Z,8.93
2022-07-29T21:05:06.056Z,9.70
2022-07-29T21:07:32.714Z,9.33
2022-07-29T21:09:59.425Z,8.60
2022-07-29T21:12:26.092Z,9.73
2022-07-29T21:14:52.842Z,9.50
2022-07-29T21:17:22.601Z,10.37
2022-07-29T21:19:52.519Z,9.10
2022-07-29T21:22:21.894Z,10.33
2022-07-29T21:24:49.314Z,9.40
2022-07-29T21:27:34.853Z,8.43
2022-07-29T21:30:01.632Z,8.60
2022-07-29T21:32:29.891Z,9.10
2022-07-29T21:34:57.803Z,8.47
2022-07-29T21:37:24.717Z,8.90
2022-07-29T21:39:51.427Z,8.50
2022-07-29T21:42:18.230Z,8.70
2022-07-29T21:44:45.287Z,8.03
2022-07-29T21:47:11.986Z,9.00
2022-07-29T21:49:39.152Z,9.50
2022-07-29T21:52:07.977Z,8.03
2022-07-29T21:54:35.733Z,8.30
2022-07-29T21:57:02.999Z,7.73
2022-07-29T21:59:30.301Z,7.80
2022-07-29T22:02:00.827Z,8.20
2022-07-29T22:04:31.437Z,7.40
2022-07-29T22:06:58.727Z,8.50
2022-07-29T22:09:26.214Z,7.60
2022-07-29T22:11:52.982Z,9.07
2022-07-29T22:14:19.762Z,8.10
2022-07-29T22:16:47.614Z,8.83
2022-07-29T22:19:15.004Z,8.47
2022-07-29T22:21:42.386Z,8.40
2022-07-29T22:24:10.280Z,9.90
2022-07-29T22:26:37.530Z,8.73
2022-07-29T22:29:04.238Z,10.00
2022-07-29T22:31:30.944Z,10.00
2022-07-29T22:33:57.601Z,9.50
2022-07-29T22:36:24.944Z,8.50
2022-07-29T22:38:52.146Z,9.00
2022-07-29T22:41:18.952Z,9.03
2022-07-29T22:43:45.887Z,9.17
2022-07-29T22:46:12.675Z,9.70
2022-07-29T22:48:39.460Z,9.20
2022-07-29T22:51:06.205Z,8.80
2022-07-29T22:53:32.919Z,9.83
2022-07-29T22:55:59.649Z,9.10
2022-07-29T22:58:26.455Z,10.47
2022-07-29T23:00:53.327Z,9.60
2022-07-29T23:03:21.058Z,8.90
2022-07-29T23:05:47.817Z,10.43
2022-07-29T23:08:14.499Z,9.33
2022-07-29T23:10:41.654Z,9.40
2022-07-29T23:13:08.622Z,8.80
2022-07-29T23:15:35.297Z,9.50
2022-07-29T23:18:02.018Z,10.50
2022-07-29T23:20:28.691Z,9.97
2022-07-29T23:22:55.443Z,9.83
2022-07-29T23:25:22.270Z,9.43
2022-07-29T23:27:48.959Z,10.07
2022-07-29T23:30:15.904Z,9.80
2022-07-29T23:32:42.589Z,10.80
2022-07-29T23:35:09.648Z,10.00
2022-07-29T23:37:36.592Z,10.67
2022-07-29T23:40:04.572Z,9.83
2022-07-29T23:42:31.239Z,10.23
2022-07-29T23:44:57.931Z,11.07
2022-07-29T23:47:24.711Z,9.60
2022-07-29T23:49:51.599Z,9.97
2022-07-29T23:52:18.630Z,10.70
2022-07-29T23:54:45.317Z,10.00
2022-07-29T23:57:12.212Z,12.63
2022-07-29T23:59:38.923Z,11.03
